Aviation Digital Data Service (ADDS)

Output produced by METARs form (2229 UTC 14 December 2018)
found at http://aviationweather.gov/metar/data/
 
KVNY 141740Z 1418/1518 22004KT P6SM OVC200 
     FM142000 34006KT P6SM BKN200 
     FM150000 09006KT P6SM BKN200 
     FM150300 VRB03KT P6SM SCT250